Time;durP1;ratioP1;P1;durP2;ratioP2;P2;SDS_P1;SDS_P2;PMS_P1;PMS_P2;Temp;Humidity;BMP_temperature;BMP_pressure;BME280_temperature;BME280_humidity;BME280_pressure;Samples;Min_cycle;Max_cycle;Signal;HPM_P1;HPM_P2
2023/12/04 00:01:17;;;;;;;20.38;9.93;;;-1.10;99.90;;;;;;5050183;28;20111;-76
2023/12/04 00:03:42;;;;;;;;;;;-1.10;99.90;;;;;;5050877;28;20083;-74
2023/12/04 00:06:10;;;;;;;18.63;8.95;;;-0.90;99.90;;;;;;5065581;28;19912;-76
2023/12/04 00:08:36;;;;;;;15.98;8.95;;;-0.80;99.90;;;;;;5049280;28;20056;-77
2023/12/04 00:11:03;;;;;;;22.23;9.23;;;-0.80;99.90;;;;;;5050257;28;20034;-77
2023/12/04 00:13:28;;;;;;;17.15;9.45;;;-0.90;99.90;;;;;;5042164;28;20040;-76
2023/12/04 00:15:54;;;;;;;19.13;9.80;;;-1.00;99.90;;;;;;5043020;28;20029;-77
2023/12/04 00:18:20;;;;;;;17.33;8.00;;;-1.00;99.90;;;;;;5049185;28;20307;-77
2023/12/04 00:20:45;;;;;;;16.50;8.47;;;-0.80;99.90;;;;;;5044380;28;20276;-77
2023/12/04 00:23:11;;;;;;;21.00;9.18;;;-0.80;99.90;;;;;;5048039;28;20063;-77
2023/12/04 00:25:36;;;;;;;15.13;8.97;;;-0.80;99.90;;;;;;5030213;28;20029;-77
2023/12/04 00:28:02;;;;;;;20.55;9.18;;;-0.80;99.90;;;;;;5039828;28;20037;-77
2023/12/04 00:30:27;;;;;;;15.68;8.75;;;-0.70;99.90;;;;;;5050114;28;20102;-77
2023/12/04 00:32:53;;;;;;;16.27;7.87;;;-0.70;99.90;;;;;;5049940;28;20413;-77
2023/12/04 00:35:18;;;;;;;15.50;8.20;;;-0.60;99.90;;;;;;5050226;28;20280;-77
2023/12/04 00:37:44;;;;;;;16.63;9.13;;;-0.60;99.90;;;;;;5049300;28;20060;-76
2023/12/04 00:40:10;;;;;;;15.32;8.98;;;-0.60;99.90;;;;;;5050402;28;20037;-76
2023/12/04 00:42:36;;;;;;;15.80;8.85;;;-0.60;99.90;;;;;;5049663;28;20036;-77
2023/12/04 00:45:02;;;;;;;18.50;8.77;;;-0.60;99.90;;;;;;5049725;28;20505;-76
2023/12/04 00:47:28;;;;;;;17.40;8.52;;;-0.60;99.90;;;;;;5049436;28;20025;-76
2023/12/04 00:49:54;;;;;;;20.00;9.23;;;-0.60;99.90;;;;;;5049587;28;20825;-75
2023/12/04 00:52:19;;;;;;;17.17;8.27;;;-0.60;99.90;;;;;;5049382;28;20100;-76
2023/12/04 00:54:45;;;;;;;15.63;8.27;;;-0.50;99.90;;;;;;5049699;28;20029;-76
2023/12/04 00:57:10;;;;;;;16.45;9.05;;;-0.60;99.90;;;;;;5049414;28;20048;-77
2023/12/04 00:59:36;;;;;;;19.10;9.20;;;-0.50;99.90;;;;;;5049492;28;20037;-76
2023/12/04 01:02:02;;;;;;;18.27;9.05;;;-0.50;99.90;;;;;;5048970;28;20025;-77
2023/12/04 01:04:27;;;;;;;16.17;7.55;;;-0.40;99.90;;;;;;5047742;28;20052;-77
2023/12/04 01:06:53;;;;;;;16.40;8.03;;;-0.40;99.90;;;;;;5030023;28;20544;-76
2023/12/04 01:09:23;;;;;;;11.80;6.65;;;-0.20;99.90;;;;;;5048704;28;20271;-75
2023/12/04 01:11:53;;;;;;;11.95;6.78;;;0.00;99.90;;;;;;5048044;28;20025;-75
2023/12/04 01:14:19;;;;;;;15.98;7.50;;;0.00;99.90;;;;;;5049151;28;20021;-73
2023/12/04 01:16:44;;;;;;;14.80;7.07;;;0.20;99.90;;;;;;5049167;28;20040;-74
2023/12/04 01:19:10;;;;;;;12.05;6.50;;;0.20;99.90;;;;;;5049026;28;20396;-73
2023/12/04 01:21:35;;;;;;;17.48;7.50;;;0.20;99.90;;;;;;5048895;28;20036;-73
2023/12/04 01:24:01;;;;;;;13.75;7.13;;;0.10;99.90;;;;;;5048741;28;20040;-73
2023/12/04 01:26:27;;;;;;;16.33;7.70;;;0.20;99.90;;;;;;5048754;28;20452;-74
2023/12/04 01:28:52;;;;;;;16.10;7.47;;;0.20;99.90;;;;;;5048646;28;20505;-73
2023/12/04 01:31:18;;;;;;;15.83;7.60;;;0.40;99.90;;;;;;5048851;28;20271;-74
2023/12/04 01:33:43;;;;;;;15.00;7.75;;;0.50;99.90;;;;;;5048661;28;20082;-73
2023/12/04 01:36:09;;;;;;;13.90;7.63;;;0.50;99.90;;;;;;5049198;28;20033;-73
2023/12/04 01:38:36;;;;;;;16.42;8.18;;;0.50;99.90;;;;;;5047942;28;20799;-74
2023/12/04 01:41:01;;;;;;;15.63;8.55;;;0.40;99.90;;;;;;5049470;28;20040;-73
2023/12/04 01:43:28;;;;;;;14.07;7.70;;;0.50;99.90;;;;;;5049602;28;20041;-76
2023/12/04 01:45:54;;;;;;;13.73;7.82;;;0.50;99.90;;;;;;5050077;28;20033;-75
2023/12/04 01:48:20;;;;;;;16.48;8.70;;;0.50;99.90;;;;;;5048393;28;20032;-74
2023/12/04 01:50:46;;;;;;;14.13;7.35;;;0.60;99.90;;;;;;5048659;28;20043;-76
2023/12/04 01:53:12;;;;;;;14.10;7.05;;;0.70;99.90;;;;;;5048518;28;20036;-76
2023/12/04 01:55:38;;;;;;;12.38;6.75;;;0.60;99.90;;;;;;5063632;28;20132;-74
2023/12/04 01:58:05;;;;;;;17.10;7.88;;;0.60;99.90;;;;;;5049473;28;20536;-76
2023/12/04 02:00:32;;;;;;;16.77;7.28;;;0.60;99.90;;;;;;5048087;28;20021;-75
2023/12/04 02:02:59;;;;;;;14.88;7.90;;;0.50;99.90;;;;;;5042035;28;20033;-75
2023/12/04 02:05:27;;;;;;;12.38;7.13;;;0.60;99.90;;;;;;5031319;28;20044;-75
2023/12/04 02:07:53;;;;;;;19.52;7.75;;;0.70;99.90;;;;;;5036139;28;20481;-76
2023/12/04 02:10:19;;;;;;;12.77;6.78;;;0.70;99.90;;;;;;5048102;28;20481;-77
2023/12/04 02:12:45;;;;;;;15.30;6.88;;;0.70;99.90;;;;;;5048438;28;20455;-76
2023/12/04 02:15:11;;;;;;;10.90;5.70;;;0.70;99.90;;;;;;5048452;28;20071;-76
2023/12/04 02:17:37;;;;;;;15.65;6.63;;;0.80;99.90;;;;;;5048169;28;20099;-76
2023/12/04 02:20:03;;;;;;;17.20;7.25;;;0.90;99.90;;;;;;5047943;28;20122;-76
2023/12/04 02:22:29;;;;;;;12.68;7.18;;;0.80;99.90;;;;;;5046756;28;20452;-76
2023/12/04 02:24:58;;;;;;;26.42;6.78;;;0.80;99.90;;;;;;5063088;28;20041;-75
2023/12/04 02:27:28;;;;;;;12.75;6.15;;;0.80;99.90;;;;;;5047972;28;20040;-76
2023/12/04 02:30:01;;;;;;;10.30;5.85;;;0.80;99.90;;;;;;5048083;28;20021;-77
2023/12/04 02:32:33;;;;;;;12.63;6.90;;;0.90;99.90;;;;;;5047952;28;20044;-76
2023/12/04 02:35:02;;;;;;;12.13;5.90;;;0.90;99.90;;;;;;5047803;28;20033;-77
2023/12/04 02:37:28;;;;;;;11.10;6.38;;;0.90;99.90;;;;;;5047702;28;20128;-77
2023/12/04 02:39:55;;;;;;;14.10;7.07;;;1.00;99.90;;;;;;5047189;28;20556;-76
2023/12/04 02:42:21;;;;;;;11.23;5.53;;;1.00;99.90;;;;;;5029563;28;20493;-77
2023/12/04 02:44:47;;;;;;;16.35;6.88;;;1.00;99.90;;;;;;5047931;28;20033;-76
2023/12/04 02:47:13;;;;;;;13.65;7.65;;;1.10;99.90;;;;;;5046859;28;20095;-76
2023/12/04 02:49:39;;;;;;;13.18;6.38;;;1.10;99.90;;;;;;5048298;28;20033;-76
2023/12/04 02:52:04;;;;;;;17.30;7.10;;;1.00;99.90;;;;;;5048212;28;20905;-75
2023/12/04 02:54:30;;;;;;;12.45;6.32;;;1.00;99.90;;;;;;5047813;28;20112;-74
2023/12/04 02:56:55;;;;;;;11.40;6.30;;;1.10;99.90;;;;;;5048180;28;20087;-75
2023/12/04 02:59:21;;;;;;;10.63;6.17;;;1.10;99.90;;;;;;5047510;28;20036;-74
2023/12/04 03:01:47;;;;;;;12.38;6.38;;;1.00;99.90;;;;;;5047953;28;20029;-75
2023/12/04 03:04:13;;;;;;;11.53;6.50;;;1.00;99.90;;;;;;5047918;28;20053;-73
2023/12/04 03:06:39;;;;;;;12.75;6.72;;;1.00;99.90;;;;;;5047478;28;20767;-74
2023/12/04 03:09:04;;;;;;;14.43;7.03;;;1.00;99.90;;;;;;5047115;28;20033;-74
2023/12/04 03:11:30;;;;;;;13.20;6.30;;;1.00;99.90;;;;;;5047167;28;20037;-76
2023/12/04 03:13:56;;;;;;;15.80;6.80;;;1.00;99.90;;;;;;5045963;28;20036;-73
2023/12/04 03:16:22;;;;;;;11.50;6.15;;;1.20;99.90;;;;;;5045639;28;20493;-76
2023/12/04 03:18:47;;;;;;;12.23;6.50;;;1.20;99.90;;;;;;5045977;28;20069;-76
2023/12/04 03:21:13;;;;;;;9.70;6.00;;;1.20;99.90;;;;;;5047375;28;20619;-76
2023/12/04 03:23:39;;;;;;;9.60;5.43;;;1.20;99.90;;;;;;5047205;28;20112;-74
2023/12/04 03:26:04;;;;;;;8.70;5.13;;;1.20;99.90;;;;;;5047253;28;20431;-74
2023/12/04 03:28:30;;;;;;;10.63;6.28;;;1.20;99.90;;;;;;5047834;28;20033;-74
2023/12/04 03:30:56;;;;;;;16.50;6.63;;;1.30;99.90;;;;;;5048074;28;20036;-74
2023/12/04 03:33:21;;;;;;;15.18;6.38;;;1.30;99.90;;;;;;5047979;28;20040;-74
2023/12/04 03:35:47;;;;;;;14.70;6.03;;;1.30;99.90;;;;;;5047506;28;20041;-74
2023/12/04 03:38:13;;;;;;;11.95;6.07;;;1.30;99.90;;;;;;5047310;28;20037;-74
2023/12/04 03:40:38;;;;;;;11.13;5.65;;;1.40;99.90;;;;;;5047243;28;20642;-75
2023/12/04 03:43:04;;;;;;;11.27;6.03;;;1.60;99.90;;;;;;5047095;28;20041;-75
2023/12/04 03:45:29;;;;;;;10.83;5.43;;;1.50;99.90;;;;;;5047071;28;20396;-75
2023/12/04 03:47:55;;;;;;;8.23;5.30;;;1.70;99.90;;;;;;5046817;28;20271;-76
2023/12/04 03:50:21;;;;;;;11.45;5.90;;;1.60;99.90;;;;;;5046843;28;20037;-76
2023/12/04 03:52:46;;;;;;;11.93;5.82;;;1.60;99.90;;;;;;5046614;28;20099;-76
2023/12/04 03:55:12;;;;;;;10.00;4.77;;;1.60;99.90;;;;;;5047488;28;20103;-76
2023/12/04 03:57:37;;;;;;;8.77;5.35;;;1.60;99.90;;;;;;5045798;28;20082;-76
2023/12/04 04:00:04;;;;;;;13.93;6.10;;;1.60;99.90;;;;;;5047236;28;20029;-77
2023/12/04 04:02:30;;;;;;;9.70;5.50;;;1.60;99.90;;;;;;5057793;28;20154;-76
2023/12/04 04:04:55;;;;;;;12.63;6.37;;;1.50;99.90;;;;;;5046882;28;20044;-74
2023/12/04 04:07:21;;;;;;;14.07;6.37;;;1.50;99.90;;;;;;5046870;28;20035;-77
2023/12/04 04:09:46;;;;;;;11.70;5.13;;;1.50;99.90;;;;;;5046321;28;20287;-76
2023/12/04 04:12:12;;;;;;;11.97;5.53;;;1.50;99.90;;;;;;5029143;28;20489;-76
2023/12/04 04:14:38;;;;;;;12.10;5.10;;;1.50;99.90;;;;;;5029790;28;20108;-76
2023/12/04 04:17:03;;;;;;;10.10;5.53;;;1.60;99.90;;;;;;5046943;28;20742;-76
2023/12/04 04:19:29;;;;;;;8.45;4.85;;;1.70;99.90;;;;;;5046547;28;20064;-76
2023/12/04 04:21:55;;;;;;;11.15;5.57;;;1.70;99.90;;;;;;5046856;28;20388;-76
2023/12/04 04:24:20;;;;;;;9.13;5.55;;;1.70;99.90;;;;;;5046066;28;20049;-76
2023/12/04 04:26:46;;;;;;;11.17;4.93;;;1.70;99.90;;;;;;5050186;28;20024;-77
2023/12/04 04:29:12;;;;;;;10.37;5.60;;;1.80;99.90;;;;;;5050536;28;20079;-76
2023/12/04 04:31:38;;;;;;;9.07;4.90;;;1.70;99.90;;;;;;5050037;28;20055;-76
2023/12/04 04:34:03;;;;;;;9.77;5.40;;;1.80;99.90;;;;;;5048970;28;20045;-76
2023/12/04 04:36:29;;;;;;;12.13;5.47;;;1.70;99.90;;;;;;5049804;28;20322;-76
2023/12/04 04:38:54;;;;;;;9.20;5.00;;;1.70;99.90;;;;;;5049532;28;20058;-76
2023/12/04 04:41:20;;;;;;;12.13;5.27;;;1.70;99.90;;;;;;5050368;28;20325;-76
2023/12/04 04:43:46;;;;;;;14.20;5.33;;;1.70;99.90;;;;;;5050160;28;20051;-74
2023/12/04 04:46:11;;;;;;;10.27;4.70;;;1.70;99.90;;;;;;5050512;28;20267;-76
2023/12/04 04:48:37;;;;;;;14.23;5.93;;;1.80;99.90;;;;;;5051611;28;20118;-74
2023/12/04 04:51:03;;;;;;;12.90;4.90;;;1.80;99.90;;;;;;5049395;28;20550;-77
2023/12/04 04:53:29;;;;;;;12.38;5.00;;;1.80;99.90;;;;;;5037854;28;20318;-73
2023/12/04 04:55:54;;;;;;;9.30;5.50;;;2.00;99.90;;;;;;5039786;28;20074;-74
2023/12/04 04:58:20;;;;;;;12.55;5.00;;;2.00;99.90;;;;;;5037336;28;20022;-74
2023/12/04 05:00:47;;;;;;;10.00;5.07;;;2.00;99.90;;;;;;5039213;28;20036;-75
2023/12/04 05:03:13;;;;;;;12.10;5.43;;;2.00;99.90;;;;;;5033699;28;20135;-73
2023/12/04 05:05:38;;;;;;;7.55;5.22;;;1.90;99.90;;;;;;5044546;28;20032;-73
2023/12/04 05:08:04;;;;;;;12.02;5.15;;;1.80;99.90;;;;;;5043511;28;20049;-73
2023/12/04 05:10:30;;;;;;;12.23;4.97;;;1.80;99.90;;;;;;5037592;28;20045;-74
2023/12/04 05:12:55;;;;;;;9.35;5.03;;;1.80;99.90;;;;;;5049501;28;20064;-75
2023/12/04 05:15:21;;;;;;;12.47;5.10;;;1.70;99.90;;;;;;5041351;28;20025;-74
2023/12/04 05:17:47;;;;;;;10.00;4.77;;;1.80;99.90;;;;;;5054793;28;20272;-74
2023/12/04 05:20:12;;;;;;;14.75;5.55;;;1.70;99.90;;;;;;5041198;28;20033;-76
2023/12/04 05:22:38;;;;;;;8.55;5.05;;;1.80;99.90;;;;;;5042214;28;20033;-77
2023/12/04 05:25:04;;;;;;;13.43;6.07;;;1.90;99.90;;;;;;5040069;28;20048;-77
2023/12/04 05:27:30;;;;;;;11.90;5.28;;;1.80;99.90;;;;;;5028873;28;20541;-76
2023/12/04 05:29:55;;;;;;;13.63;6.10;;;1.80;99.90;;;;;;5030858;28;20035;-76
2023/12/04 05:32:21;;;;;;;10.03;5.77;;;1.90;99.90;;;;;;5048786;28;20570;-76
2023/12/04 05:34:46;;;;;;;11.80;6.00;;;1.80;99.90;;;;;;5036898;28;20036;-76
2023/12/04 05:37:12;;;;;;;9.63;5.30;;;1.90;99.90;;;;;;5032203;28;20082;-77
2023/12/04 05:39:38;;;;;;;9.47;5.13;;;2.00;99.90;;;;;;5038558;28;20373;-75
2023/12/04 05:42:03;;;;;;;12.03;6.13;;;2.10;99.90;;;;;;5038108;28;20272;-76
2023/12/04 05:44:31;;;;;;;9.80;5.82;;;2.20;99.90;;;;;;5036824;28;20108;-75
2023/12/04 05:46:57;;;;;;;12.40;5.65;;;2.20;99.90;;;;;;5039222;28;20033;-77
2023/12/04 05:49:22;;;;;;;14.23;5.90;;;2.20;99.90;;;;;;5041222;28;20090;-76
2023/12/04 05:51:48;;;;;;;13.07;6.68;;;2.30;99.90;;;;;;5029755;28;20021;-77
2023/12/04 05:54:14;;;;;;;15.18;6.15;;;2.40;99.90;;;;;;5033263;28;20076;-77
2023/12/04 05:56:39;;;;;;;11.97;5.93;;;2.40;99.90;;;;;;5039829;28;20033;-75
2023/12/04 05:59:05;;;;;;;9.77;6.00;;;2.40;99.90;;;;;;5045082;28;20606;-76
2023/12/04 06:01:31;;;;;;;12.00;5.93;;;2.30;99.90;;;;;;5041473;28;20275;-75
2023/12/04 06:03:56;;;;;;;11.50;6.03;;;2.40;99.90;;;;;;5039572;28;20054;-79
2023/12/04 06:06:22;;;;;;;12.30;6.47;;;2.40;99.90;;;;;;5034217;28;20040;-74
2023/12/04 06:08:47;;;;;;;11.07;6.63;;;2.40;99.90;;;;;;5038032;28;20810;-73
2023/12/04 06:11:13;;;;;;;10.90;6.30;;;2.40;99.90;;;;;;5042753;28;20335;-72
2023/12/04 06:13:39;;;;;;;12.77;6.25;;;2.40;99.90;;;;;;5042739;28;20044;-73
2023/12/04 06:16:05;;;;;;;20.03;6.17;;;2.40;99.90;;;;;;5040933;28;20036;-72
2023/12/04 06:18:31;;;;;;;12.55;6.38;;;2.40;99.90;;;;;;5035971;28;20513;-73
2023/12/04 06:20:56;;;;;;;12.87;6.43;;;2.30;99.90;;;;;;5031687;28;20115;-72
2023/12/04 06:23:22;;;;;;;11.37;5.83;;;2.40;99.90;;;;;;5043505;28;20924;-79
2023/12/04 06:25:48;;;;;;;11.32;6.60;;;2.30;99.90;;;;;;5042594;28;20303;-73
2023/12/04 06:28:14;;;;;;;13.57;6.38;;;2.40;99.90;;;;;;5041395;28;20040;-74
2023/12/04 06:30:40;;;;;;;20.03;7.17;;;2.40;99.90;;;;;;5034984;28;20033;-75
2023/12/04 06:33:06;;;;;;;12.88;6.03;;;2.50;99.90;;;;;;5043206;28;20060;-74
2023/12/04 06:35:31;;;;;;;13.90;5.97;;;2.50;99.90;;;;;;5041941;28;20029;-75
2023/12/04 06:38:05;;;;;;;13.20;6.25;;;2.60;99.90;;;;;;5029758;28;20748;-74
2023/12/04 06:40:32;;;;;;;12.68;5.57;;;2.60;99.90;;;;;;5038409;28;20091;-79
2023/12/04 06:42:57;;;;;;;15.70;6.53;;;2.50;99.90;;;;;;5035415;28;20025;-75
2023/12/04 06:45:23;;;;;;;14.85;6.38;;;2.50;99.90;;;;;;5036593;28;20045;-76
2023/12/04 06:47:50;;;;;;;10.60;6.40;;;2.40;99.90;;;;;;5033303;28;20037;-74
2023/12/04 06:50:16;;;;;;;12.05;6.50;;;2.40;99.90;;;;;;5035205;28;20492;-74
2023/12/04 06:52:42;;;;;;;13.32;7.15;;;2.40;99.90;;;;;;5039187;28;20040;-77
2023/12/04 06:55:08;;;;;;;17.15;6.88;;;2.40;99.90;;;;;;5034182;28;20041;-75
2023/12/04 06:57:34;;;;;;;22.65;8.23;;;2.30;99.90;;;;;;5031900;28;20037;-76
2023/12/04 07:00:00;;;;;;;13.80;7.38;;;2.30;99.90;;;;;;5035204;28;20029;-76
2023/12/04 07:02:25;;;;;;;21.50;6.95;;;2.30;99.90;;;;;;5033232;28;20038;-77
2023/12/04 07:04:51;;;;;;;22.50;7.47;;;2.30;99.90;;;;;;5037218;28;20079;-75
2023/12/04 07:07:16;;;;;;;14.97;7.13;;;2.20;99.90;;;;;;5037353;28;20280;-74
2023/12/04 07:09:42;;;;;;;13.98;7.05;;;2.20;99.90;;;;;;5035117;28;20085;-73
2023/12/04 07:12:08;;;;;;;14.30;7.53;;;2.20;99.90;;;;;;5037493;28;20049;-76
2023/12/04 07:14:34;;;;;;;14.73;6.95;;;2.20;99.90;;;;;;5038212;28;20107;-77
2023/12/04 07:17:00;;;;;;;28.80;7.90;;;2.20;99.90;;;;;;5033229;28;20504;-76
2023/12/04 07:19:26;;;;;;;12.52;6.63;;;2.20;99.90;;;;;;5032837;28;20037;-77
2023/12/04 07:21:52;;;;;;;13.57;6.97;;;2.20;99.90;;;;;;5026762;28;20036;-76
2023/12/04 07:24:18;;;;;;;20.20;7.10;;;2.30;99.90;;;;;;5035196;28;20033;-76
2023/12/04 07:26:43;;;;;;;15.33;6.40;;;2.40;99.90;;;;;;5037231;28;20099;-75
2023/12/04 07:29:09;;;;;;;15.87;6.77;;;2.50;99.90;;;;;;5053240;28;20299;-77
2023/12/04 07:31:35;;;;;;;12.23;6.28;;;2.50;99.90;;;;;;5034160;28;20396;-75
2023/12/04 07:34:01;;;;;;;12.07;6.63;;;2.50;99.90;;;;;;5035460;28;20029;-76
2023/12/04 07:36:28;;;;;;;16.08;7.05;;;2.60;99.90;;;;;;5035473;28;20288;-76
2023/12/04 07:38:53;;;;;;;17.00;6.70;;;2.70;99.90;;;;;;5036917;28;20063;-77
2023/12/04 07:41:19;;;;;;;14.00;7.03;;;2.60;99.90;;;;;;5035613;28;20060;-77
2023/12/04 07:43:45;;;;;;;13.80;7.15;;;2.60;99.90;;;;;;5031536;28;20033;-76
2023/12/04 07:46:11;;;;;;;15.75;6.57;;;2.60;99.90;;;;;;5033421;28;20037;-76
2023/12/04 07:48:37;;;;;;;11.93;6.45;;;2.70;99.90;;;;;;5033854;28;20036;-77
2023/12/04 07:51:03;;;;;;;13.68;6.82;;;2.70;99.90;;;;;;5031048;28;20533;-76
2023/12/04 07:53:29;;;;;;;13.43;7.20;;;2.60;99.90;;;;;;5037328;28;20122;-76
2023/12/04 07:55:54;;;;;;;12.63;6.53;;;2.70;99.90;;;;;;5035943;28;20397;-74
2023/12/04 07:58:20;;;;;;;14.93;7.10;;;2.60;99.90;;;;;;5033222;28;20039;-77
2023/12/04 08:00:45;;;;;;;15.40;7.40;;;2.50;99.90;;;;;;5038619;28;20029;-77
2023/12/04 08:03:11;;;;;;;15.37;7.67;;;2.60;99.90;;;;;;5039489;28;20064;-76
2023/12/04 08:05:37;;;;;;;14.33;7.40;;;2.60;99.90;;;;;;5044332;28;20091;-77
2023/12/04 08:08:03;;;;;;;23.67;7.78;;;2.60;99.90;;;;;;5056605;28;20189;-78
2023/12/04 08:10:29;;;;;;;19.58;7.97;;;2.60;99.90;;;;;;5040724;28;20139;-76
2023/12/04 08:12:54;;;;;;;13.77;8.07;;;2.60;99.90;;;;;;5039761;28;20036;-76
2023/12/04 08:15:20;;;;;;;34.40;14.57;;;2.60;99.90;;;;;;5056562;28;20032;-76
2023/12/04 08:17:45;;;;;;;30.37;14.23;;;2.70;99.90;;;;;;5041665;28;20056;-77
2023/12/04 08:20:14;;;;;;;24.35;11.27;;;2.70;99.90;;;;;;5033301;28;20030;-76
2023/12/04 08:22:44;;;;;;;18.45;9.25;;;2.70;99.90;;;;;;5040709;28;20041;-74
2023/12/04 08:25:11;;;;;;;17.77;8.48;;;2.70;99.90;;;;;;5041041;28;20082;-74
2023/12/04 08:27:36;;;;;;;23.33;9.95;;;2.70;99.90;;;;;;5040910;28;20804;-75
2023/12/04 08:30:04;;;;;;;16.57;8.47;;;2.70;99.90;;;;;;5039311;28;20033;-75
2023/12/04 08:32:29;;;;;;;14.85;7.78;;;2.70;99.90;;;;;;5044773;28;20087;-74
2023/12/04 08:34:55;;;;;;;15.53;7.63;;;2.80;99.90;;;;;;5040680;28;20037;-76
2023/12/04 08:37:21;;;;;;;17.87;7.53;;;2.80;99.90;;;;;;5041121;28;20036;-77
2023/12/04 08:39:46;;;;;;;13.07;7.03;;;2.80;99.90;;;;;;5040512;28;20331;-78
2023/12/04 08:42:12;;;;;;;15.87;6.70;;;2.80;99.90;;;;;;5038662;28;20040;-76
2023/12/04 08:44:38;;;;;;;19.05;7.05;;;2.80;99.90;;;;;;5053982;28;20533;-76
2023/12/04 08:47:05;;;;;;;21.52;8.18;;;2.80;99.90;;;;;;5038969;28;20798;-77
2023/12/04 08:49:30;;;;;;;22.55;7.50;;;2.80;99.90;;;;;;5039101;28;20378;-76
2023/12/04 08:51:56;;;;;;;15.73;7.57;;;2.80;99.90;;;;;;5037807;28;20081;-77
2023/12/04 08:54:22;;;;;;;14.90;7.40;;;2.90;99.90;;;;;;5034972;28;20036;-75
2023/12/04 08:56:47;;;;;;;13.00;7.53;;;3.00;99.90;;;;;;5040056;28;20095;-76
2023/12/04 08:59:13;;;;;;;18.60;8.10;;;3.00;99.90;;;;;;5043713;28;20056;-75
2023/12/04 09:01:39;;;;;;;18.33;8.70;;;3.10;99.90;;;;;;5042568;28;20079;-76
2023/12/04 09:04:04;;;;;;;19.77;7.97;;;3.10;99.90;;;;;;5044400;28;20139;-78
2023/12/04 09:06:30;;;;;;;18.57;7.70;;;3.20;99.90;;;;;;5043816;28;20459;-75
2023/12/04 09:08:56;;;;;;;19.05;8.63;;;3.20;99.90;;;;;;5043891;28;20489;-75
2023/12/04 09:11:21;;;;;;;17.57;6.77;;;3.20;99.90;;;;;;5049620;28;20048;-77
2023/12/04 09:13:47;;;;;;;18.47;6.67;;;3.30;99.90;;;;;;5043249;28;20052;-77
2023/12/04 09:16:13;;;;;;;13.65;6.72;;;3.40;99.90;;;;;;5042747;28;20070;-75
2023/12/04 09:18:39;;;;;;;12.85;6.95;;;3.40;99.90;;;;;;5042942;28;20036;-76
2023/12/04 09:21:05;;;;;;;17.52;7.53;;;3.40;99.90;;;;;;5043580;28;20032;-75
2023/12/04 09:23:31;;;;;;;15.20;7.20;;;3.40;99.90;;;;;;5040227;28;20042;-75
2023/12/04 09:25:56;;;;;;;15.10;7.37;;;3.40;99.90;;;;;;5059985;28;20032;-75
2023/12/04 09:28:22;;;;;;;15.03;7.43;;;3.50;99.90;;;;;;5052366;28;20033;-76
2023/12/04 09:30:48;;;;;;;14.60;7.07;;;3.50;99.90;;;;;;5038958;28;20024;-77
2023/12/04 09:33:13;;;;;;;18.17;7.75;;;3.50;99.90;;;;;;5054702;28;20481;-76
2023/12/04 09:35:39;;;;;;;13.50;7.37;;;3.60;99.90;;;;;;5044365;28;20025;-76
2023/12/04 09:38:05;;;;;;;15.37;6.90;;;3.60;99.90;;;;;;5039316;28;20033;-77
2023/12/04 09:40:30;;;;;;;13.93;6.85;;;3.60;99.90;;;;;;5044628;28;20033;-76
2023/12/04 09:42:57;;;;;;;14.77;7.30;;;3.60;99.90;;;;;;5042874;28;20633;-77
2023/12/04 09:45:24;;;;;;;19.80;7.80;;;3.50;99.90;;;;;;5034473;28;20107;-80
2023/12/04 09:47:50;;;;;;;18.02;7.38;;;3.50;99.90;;;;;;5049577;28;20136;-75
2023/12/04 09:50:20;;;;;;;16.45;8.20;;;3.60;99.90;;;;;;5049253;28;20393;-77
2023/12/04 09:52:53;;;;;;;20.20;6.95;;;3.60;99.90;;;;;;5055727;28;20111;-78
2023/12/04 09:55:19;;;;;;;13.35;7.32;;;3.70;99.90;;;;;;5048222;28;20455;-79
2023/12/04 09:57:45;;;;;;;;;;;3.70;99.90;;;;;;5038377;28;20036;-76
2023/12/04 10:00:14;;;;;;;20.33;8.20;;;3.70;99.90;;;;;;5047899;28;20398;-78
2023/12/04 10:02:40;;;;;;;31.33;11.38;;;3.70;99.90;;;;;;5040846;28;20041;-78
2023/12/04 10:05:07;;;;;;;41.00;12.05;;;3.70;99.90;;;;;;5042103;28;20044;-77
2023/12/04 10:07:33;;;;;;;32.22;11.70;;;3.70;99.90;;;;;;5036175;28;20044;-77
2023/12/04 10:09:58;;;;;;;60.80;12.47;;;3.70;99.90;;;;;;5047528;28;20032;-77
2023/12/04 10:12:25;;;;;;;32.70;11.50;;;3.70;99.90;;;;;;5054490;28;20059;-78
2023/12/04 10:15:07;;;;;;;30.50;12.00;;;3.70;99.90;;;;;;5040184;28;20040;-77
2023/12/04 10:17:37;;;;;;;25.35;10.32;;;3.80;99.90;;;;;;5041046;28;20025;-78
2023/12/04 10:20:10;;;;;;;33.13;12.23;;;3.80;99.90;;;;;;5038340;28;20037;-79
2023/12/04 10:22:36;;;;;;;37.25;12.18;;;3.80;99.90;;;;;;5040880;28;20026;-81
2023/12/04 10:25:15;;;;;;;36.73;11.17;;;3.80;99.90;;;;;;5041220;28;20045;-78
2023/12/04 10:27:41;;;;;;;23.02;10.32;;;3.80;99.90;;;;;;5034048;28;20025;-79
2023/12/04 10:30:07;;;;;;;28.38;10.13;;;3.80;99.90;;;;;;5033555;28;20373;-78
2023/12/04 10:32:39;;;;;;;25.10;10.55;;;3.80;99.90;;;;;;5042409;28;20030;-78
2023/12/04 10:35:09;;;;;;;18.50;10.02;;;3.90;99.90;;;;;;5042508;28;20044;-79
2023/12/04 10:37:36;;;;;;;22.80;10.68;;;3.80;99.90;;;;;;5037717;28;20065;-79
2023/12/04 10:40:03;;;;;;;27.85;10.07;;;3.80;99.90;;;;;;5048314;28;20035;-79
2023/12/04 10:42:32;;;;;;;;;;;3.80;99.90;;;;;;5057855;28;20428;-79
2023/12/04 10:44:59;;;;;;;30.98;10.23;;;3.80;99.90;;;;;;5039449;28;20407;-79
2023/12/04 10:47:29;;;;;;;29.23;11.60;;;3.90;99.90;;;;;;5037052;28;20132;-79
2023/12/04 10:49:55;;;;;;;31.20;11.63;;;4.00;99.90;;;;;;5041622;28;20083;-80
2023/12/04 10:52:21;;;;;;;29.85;12.90;;;3.90;99.90;;;;;;5041745;28;20448;-80
2023/12/04 10:54:47;;;;;;;26.13;12.27;;;3.90;99.90;;;;;;5040161;28;20459;-80
2023/12/04 10:57:21;;;;;;;24.30;11.93;;;3.90;99.90;;;;;;5036644;28;20401;-79
2023/12/04 10:59:48;;;;;;;22.92;11.27;;;3.90;99.90;;;;;;5037796;28;20063;-80
2023/12/04 11:02:21;;;;;;;24.02;11.73;;;3.80;99.90;;;;;;5042447;28;20025;-80
2023/12/04 11:04:50;;;;;;;24.52;11.07;;;3.90;99.90;;;;;;5037747;28;20035;-81
2023/12/04 11:07:17;;;;;;;25.88;11.40;;;3.90;99.90;;;;;;5038399;28;20036;-80
2023/12/04 11:09:43;;;;;;;29.13;10.80;;;3.90;99.90;;;;;;5038708;28;20064;-80
2023/12/04 11:12:13;;;;;;;22.38;11.20;;;4.00;99.90;;;;;;5043751;28;20374;-80
2023/12/04 11:14:46;;;;;;;17.00;10.23;;;4.00;99.90;;;;;;5036139;28;20033;-80
2023/12/04 11:17:14;;;;;;;26.65;10.68;;;4.10;99.90;;;;;;5040199;28;20040;-80
2023/12/04 11:19:49;;;;;;;26.30;12.60;;;4.10;99.90;;;;;;5038125;28;20036;-83
2023/12/04 11:22:15;;;;;;;27.92;11.43;;;4.10;99.90;;;;;;5037811;28;20070;-79
2023/12/04 11:24:41;;;;;;;;;;;4.30;99.90;;;;;;5037168;28;20029;-79
2023/12/04 11:27:07;;;;;;;24.25;9.98;;;4.20;99.90;;;;;;5040583;28;19913;-77
2023/12/04 11:29:34;;;;;;;32.30;12.70;;;4.30;99.90;;;;;;5036062;28;20025;-81
2023/12/04 11:31:59;;;;;;;;;;;4.30;99.90;;;;;;5038841;28;20033;-79
2023/12/04 11:34:25;;;;;;;23.60;12.27;;;4.30;99.90;;;;;;5041550;28;19962;-80
2023/12/04 11:36:51;;;;;;;39.72;14.68;;;4.30;99.90;;;;;;5044776;28;20040;-81
2023/12/04 11:39:19;;;;;;;37.55;16.02;;;4.30;99.90;;;;;;5059198;28;20048;-79
2023/12/04 11:41:45;;;;;;;35.33;15.18;;;4.30;99.90;;;;;;5045040;28;20515;-78
2023/12/04 11:44:14;;;;;;;28.98;15.50;;;4.30;99.90;;;;;;5041280;28;20029;-80
2023/12/04 11:46:55;;;;;;;31.55;12.55;;;4.40;99.90;;;;;;5044664;28;20036;-80
2023/12/04 11:49:30;;;;;;;31.27;10.93;;;4.50;99.90;;;;;;5040075;28;20679;-84
2023/12/04 11:52:01;;;;;;;17.08;8.85;;;4.70;99.90;;;;;;5047013;28;20029;-83
2023/12/04 11:54:27;;;;;;;21.38;9.48;;;4.80;99.90;;;;;;5046007;28;20022;-82
2023/12/04 11:56:57;;;;;;;19.67;10.32;;;4.90;99.90;;;;;;5047836;28;20139;-79
2023/12/04 11:59:23;;;;;;;27.60;12.32;;;4.90;99.90;;;;;;5041333;28;20041;-81
2023/12/04 12:01:56;;;;;;;28.50;12.03;;;4.90;99.90;;;;;;5039666;28;20033;-79
2023/12/04 12:04:21;;;;;;;30.23;12.43;;;4.90;99.90;;;;;;5039402;28;20084;-79
2023/12/04 12:06:49;;;;;;;23.67;12.53;;;4.80;99.90;;;;;;5047442;28;20056;-79
2023/12/04 12:09:15;;;;;;;31.05;13.77;;;4.80;99.90;;;;;;5045537;28;20038;-79
2023/12/04 12:11:41;;;;;;;25.83;13.90;;;4.80;99.90;;;;;;5043353;28;20033;-79
2023/12/04 12:14:06;;;;;;;33.28;14.02;;;4.80;99.90;;;;;;5037834;28;20369;-80
2023/12/04 12:16:32;;;;;;;27.70;15.37;;;4.70;99.90;;;;;;5043757;28;20037;-78
2023/12/04 12:18:58;;;;;;;29.40;13.90;;;4.80;99.90;;;;;;5038971;28;20451;-77
2023/12/04 12:21:25;;;;;;;26.53;13.67;;;4.80;99.90;;;;;;5039346;28;20044;-80
2023/12/04 12:23:50;;;;;;;27.50;13.43;;;4.80;99.90;;;;;;5048246;28;20040;-81
2023/12/04 12:26:16;;;;;;;26.85;13.43;;;4.90;99.90;;;;;;5038540;28;20029;-80
2023/12/04 12:28:42;;;;;;;25.17;12.30;;;4.90;99.90;;;;;;5037158;28;20051;-82
2023/12/04 12:31:07;;;;;;;19.57;11.47;;;5.00;99.90;;;;;;5048161;28;20024;-82
2023/12/04 12:33:33;;;;;;;28.70;13.83;;;5.00;99.90;;;;;;4170156;28;10000670;-80
2023/12/04 12:36:00;;;;;;;23.35;12.00;;;5.10;99.90;;;;;;5067185;28;20287;-79
2023/12/04 12:38:26;;;;;;;26.08;11.52;;;5.10;99.90;;;;;;5051735;28;20029;-79
2023/12/04 12:40:52;;;;;;;26.03;12.10;;;5.10;99.90;;;;;;5040255;28;20033;-81